Pedro Alexandre, Brazil
Current Conditions -  °F | °C
As of 4:00 PM on Saturday 25 Oct 2014 (Local Time) from SBAR Reporting Station
Clear Clear  
Wind Chill: 81°   Ceiling: Unl
Heat Index: 83°   Visibility: 6mi
Dew Point: 66°   Wind: 14mph
Humidity: 61%   Direction: 100°E
Pressure: 29.91"   Gusts: NA
Location:  10.01°S, 37.89°W
Report Text: SBAR 251900Z 10012KT CAVOK 27/19 Q1013
Loading
Personal Weather Stations






























Interactive Weather Map
Tropical Storm Tracking
New forecast layout! Learn more

10-Day Weather Forecast

Advertisements
Track Severe Weather on mobile